Time;durP1;ratioP1;P1;durP2;ratioP2;P2;SDS_P1;SDS_P2;PMS_P1;PMS_P2;Temp;Humidity;BMP_temperature;BMP_pressure;BME280_temperature;BME280_humidity;BME280_pressure;Samples;Min_cycle;Max_cycle;Signal;HPM_P1;HPM_P2
2022/07/24 00:00:08;;;;;;;1.85;1.17;;;14.10;99.90;;;;;;5066965;28;20052;-71
2022/07/24 00:02:34;;;;;;;1.95;1.40;;;14.00;99.90;;;;;;5064329;28;20072;-71
2022/07/24 00:05:01;;;;;;;1.83;1.30;;;14.00;99.90;;;;;;5067109;28;20076;-71
2022/07/24 00:07:28;;;;;;;2.03;1.30;;;14.00;99.90;;;;;;5066480;28;20451;-71
2022/07/24 00:09:54;;;;;;;1.42;1.30;;;14.00;99.90;;;;;;5065961;28;20067;-71
2022/07/24 00:12:20;;;;;;;1.67;1.58;;;13.90;99.90;;;;;;5066311;28;20590;-71
2022/07/24 00:14:46;;;;;;;3.38;1.58;;;13.90;99.90;;;;;;5065784;28;20056;-71
2022/07/24 00:17:12;;;;;;;2.08;1.30;;;13.90;99.90;;;;;;5067035;28;20858;-70
2022/07/24 00:19:37;;;;;;;4.47;1.35;;;13.90;99.90;;;;;;5064146;28;20532;-71
2022/07/24 00:22:03;;;;;;;4.13;1.40;;;13.90;99.90;;;;;;5067336;28;20442;-71
2022/07/24 00:24:29;;;;;;;3.45;1.42;;;13.80;99.90;;;;;;5064663;28;20059;-71
2022/07/24 00:26:55;;;;;;;2.50;1.60;;;13.80;99.90;;;;;;5066869;28;20127;-71
2022/07/24 00:29:21;;;;;;;5.60;1.80;;;13.80;99.90;;;;;;5066602;28;20088;-71
2022/07/24 00:31:48;;;;;;;2.03;1.48;;;13.80;99.90;;;;;;5063974;28;20103;-71
2022/07/24 00:34:14;;;;;;;2.30;1.58;;;13.70;99.90;;;;;;5066410;28;20202;-71
2022/07/24 00:36:43;;;;;;;3.10;1.90;;;13.70;99.90;;;;;;5063858;28;20584;-71
2022/07/24 00:39:09;;;;;;;2.83;1.50;;;13.70;99.90;;;;;;5065725;28;20053;-71
2022/07/24 00:41:35;;;;;;;4.40;1.90;;;13.70;99.90;;;;;;5058627;28;20135;-71
2022/07/24 00:44:11;;;;;;;3.72;1.50;;;13.70;99.90;;;;;;5066582;28;20132;-71
2022/07/24 00:46:39;;;;;;;1.58;1.48;;;13.70;99.90;;;;;;5060017;28;20052;-71
2022/07/24 00:49:06;;;;;;;3.30;1.70;;;13.70;99.90;;;;;;5064956;28;20040;-71
2022/07/24 00:51:33;;;;;;;2.63;1.67;;;13.70;99.90;;;;;;5065083;28;20477;-71
2022/07/24 00:53:59;;;;;;;2.80;1.80;;;13.60;99.90;;;;;;5065777;28;20536;-71
2022/07/24 00:56:26;;;;;;;2.30;1.88;;;13.60;99.90;;;;;;5066402;28;20037;-71
2022/07/24 00:58:52;;;;;;;2.85;1.92;;;13.60;99.90;;;;;;5064388;28;20466;-71
2022/07/24 01:01:18;;;;;;;1.80;1.63;;;13.60;99.90;;;;;;5066020;28;20047;-71
2022/07/24 01:03:44;;;;;;;2.08;1.70;;;13.60;99.90;;;;;;5064491;28;20098;-71
2022/07/24 01:06:10;;;;;;;4.28;2.10;;;13.50;99.90;;;;;;5064726;28;20120;-71
2022/07/24 01:08:36;;;;;;;2.90;1.73;;;13.50;99.90;;;;;;5064054;28;20123;-71
2022/07/24 01:11:03;;;;;;;3.00;1.83;;;13.50;99.90;;;;;;5064455;28;20041;-70
2022/07/24 01:13:30;;;;;;;2.65;1.60;;;13.50;99.90;;;;;;5065302;28;20534;-71
2022/07/24 01:15:57;;;;;;;2.22;2.03;;;13.50;99.90;;;;;;5065311;28;20106;-71
2022/07/24 01:18:23;;;;;;;1.63;1.50;;;13.50;99.90;;;;;;5066616;28;20035;-71
2022/07/24 01:20:50;;;;;;;2.15;2.00;;;13.40;99.90;;;;;;5065213;28;20048;-71
2022/07/24 01:23:15;;;;;;;1.98;1.70;;;13.40;99.90;;;;;;5064149;28;20062;-71
2022/07/24 01:25:41;;;;;;;4.20;1.65;;;13.40;99.90;;;;;;5064106;28;20557;-71
2022/07/24 01:28:07;;;;;;;3.83;1.90;;;13.40;99.90;;;;;;5064439;28;20403;-71
2022/07/24 01:30:34;;;;;;;3.58;1.80;;;13.40;99.90;;;;;;5065226;28;20052;-71
2022/07/24 01:32:59;;;;;;;4.28;2.00;;;13.40;99.90;;;;;;5065655;28;20398;-71
2022/07/24 01:35:25;;;;;;;5.90;2.05;;;13.40;99.90;;;;;;5065784;28;20112;-71
2022/07/24 01:37:52;;;;;;;2.38;1.73;;;13.40;99.90;;;;;;5065060;28;20112;-71
2022/07/24 01:40:20;;;;;;;4.65;2.10;;;13.40;99.90;;;;;;5065907;28;20041;-71
2022/07/24 01:42:46;;;;;;;3.08;2.55;;;13.40;99.90;;;;;;5064804;28;20044;-71
2022/07/24 01:45:13;;;;;;;4.78;1.98;;;13.40;99.90;;;;;;5065260;28;20045;-71
2022/07/24 01:47:40;;;;;;;5.05;2.25;;;13.40;99.90;;;;;;5063851;28;20048;-71
2022/07/24 01:50:06;;;;;;;2.50;2.22;;;13.40;99.90;;;;;;5065531;28;20437;-71
2022/07/24 01:52:32;;;;;;;6.85;2.45;;;13.40;99.90;;;;;;5064047;28;20429;-71
2022/07/24 01:54:57;;;;;;;2.10;2.00;;;13.40;99.90;;;;;;5065155;28;20322;-71
2022/07/24 01:57:23;;;;;;;6.90;2.50;;;13.40;99.90;;;;;;5066070;28;20499;-71
2022/07/24 01:59:49;;;;;;;5.95;2.15;;;13.30;99.90;;;;;;5064877;28;20057;-71
2022/07/24 02:02:14;;;;;;;3.30;2.28;;;13.30;99.90;;;;;;5065031;28;20063;-71
2022/07/24 02:04:40;;;;;;;1.88;1.77;;;13.30;99.90;;;;;;5063496;28;20040;-71
2022/07/24 02:07:06;;;;;;;3.20;2.20;;;13.30;99.90;;;;;;5065430;28;20024;-71
2022/07/24 02:09:31;;;;;;;2.38;2.20;;;13.20;99.90;;;;;;5063343;28;20044;-71
2022/07/24 02:12:00;;;;;;;3.20;2.65;;;13.20;99.90;;;;;;5065156;28;20534;-71
2022/07/24 02:14:26;;;;;;;3.20;2.33;;;13.20;99.90;;;;;;5064282;28;20119;-71
2022/07/24 02:16:51;;;;;;;6.28;3.03;;;13.20;99.90;;;;;;5064182;28;20589;-71
2022/07/24 02:19:17;;;;;;;6.53;2.90;;;13.20;99.90;;;;;;5064394;28;20041;-71
2022/07/24 02:21:43;;;;;;;7.32;2.67;;;13.20;99.90;;;;;;5062949;28;20044;-71
2022/07/24 02:24:09;;;;;;;6.35;2.65;;;13.30;99.90;;;;;;5064905;28;20049;-71
2022/07/24 02:26:34;;;;;;;4.40;2.67;;;13.30;99.90;;;;;;5063703;28;20575;-71
2022/07/24 02:29:00;;;;;;;4.15;2.78;;;13.30;99.90;;;;;;5064281;28;20036;-71
2022/07/24 02:31:26;;;;;;;9.90;2.85;;;13.30;99.90;;;;;;5065333;28;20037;-71
2022/07/24 02:33:52;;;;;;;5.75;2.50;;;13.30;99.90;;;;;;5065326;28;20037;-71
2022/07/24 02:36:17;;;;;;;4.35;3.15;;;13.30;99.90;;;;;;5067911;28;20043;-71
2022/07/24 02:38:43;;;;;;;5.28;2.83;;;13.30;99.90;;;;;;5066521;28;20044;-71
2022/07/24 02:41:09;;;;;;;3.75;2.72;;;13.30;99.90;;;;;;5068075;28;20060;-71
2022/07/24 02:43:35;;;;;;;4.28;3.15;;;13.30;99.90;;;;;;5066719;28;20075;-71
2022/07/24 02:46:00;;;;;;;6.38;2.58;;;13.30;99.90;;;;;;5068530;28;20036;-71
2022/07/24 02:48:26;;;;;;;4.95;3.15;;;13.30;99.90;;;;;;5066827;28;20041;-71
2022/07/24 02:50:52;;;;;;;5.35;3.03;;;13.30;99.90;;;;;;5049451;28;20505;-71
2022/07/24 02:53:18;;;;;;;4.47;2.60;;;13.30;99.90;;;;;;5068878;28;20055;-71
2022/07/24 02:55:44;;;;;;;6.53;2.63;;;13.30;99.90;;;;;;5067664;28;20512;-71
2022/07/24 02:58:12;;;;;;;3.67;2.90;;;13.30;99.90;;;;;;5068298;28;20033;-71
2022/07/24 03:00:38;;;;;;;4.22;2.88;;;13.30;99.90;;;;;;5067546;28;20043;-71
2022/07/24 03:03:04;;;;;;;5.32;3.13;;;13.30;99.90;;;;;;5067100;28;20898;-71
2022/07/24 03:05:30;;;;;;;6.97;2.90;;;13.20;99.90;;;;;;5068041;28;20190;-71
2022/07/24 03:07:56;;;;;;;3.40;3.10;;;13.30;99.90;;;;;;5067707;28;20135;-71
2022/07/24 03:10:21;;;;;;;4.20;2.70;;;13.30;99.90;;;;;;5067728;28;20040;-70
2022/07/24 03:12:48;;;;;;;4.28;2.60;;;13.30;99.90;;;;;;5067147;28;20055;-71
2022/07/24 03:15:14;;;;;;;7.07;2.80;;;13.30;99.90;;;;;;5068354;28;20120;-71
2022/07/24 03:17:49;;;;;;;7.65;2.70;;;13.30;99.90;;;;;;5067580;28;20041;-71
2022/07/24 03:20:15;;;;;;;3.53;2.70;;;13.30;99.90;;;;;;5067646;28;20119;-71
2022/07/24 03:22:42;;;;;;;5.35;2.78;;;13.30;99.90;;;;;;5067482;28;20652;-71
2022/07/24 03:25:08;;;;;;;5.32;2.85;;;13.40;99.90;;;;;;5067744;28;20067;-71
2022/07/24 03:27:33;;;;;;;3.78;2.65;;;13.40;99.90;;;;;;5067183;28;20491;-71
2022/07/24 03:29:59;;;;;;;5.80;2.60;;;13.40;99.90;;;;;;5065350;28;20357;-72
2022/07/24 03:32:25;;;;;;;2.75;2.22;;;13.50;99.90;;;;;;5068224;28;20041;-71
2022/07/24 03:34:50;;;;;;;5.03;2.80;;;13.50;99.90;;;;;;5066917;28;20145;-71
2022/07/24 03:37:16;;;;;;;4.50;3.00;;;13.50;99.90;;;;;;5050149;28;20056;-71
2022/07/24 03:39:42;;;;;;;12.18;3.75;;;13.60;99.90;;;;;;5066398;28;20510;-71
2022/07/24 03:42:08;;;;;;;4.97;2.85;;;13.60;99.90;;;;;;5065876;28;20044;-71
2022/07/24 03:44:33;;;;;;;3.00;2.78;;;13.70;99.90;;;;;;5067607;28;20055;-71
2022/07/24 03:46:59;;;;;;;5.45;2.78;;;13.70;99.90;;;;;;5066872;28;20055;-70
2022/07/24 03:49:25;;;;;;;3.15;2.53;;;13.70;99.90;;;;;;5065998;28;20121;-71
2022/07/24 03:51:50;;;;;;;4.85;3.30;;;13.70;99.90;;;;;;5064890;28;20044;-71
2022/07/24 03:54:16;;;;;;;4.95;3.03;;;13.80;99.90;;;;;;5066308;28;20045;-71
2022/07/24 03:56:42;;;;;;;6.63;2.72;;;13.80;99.90;;;;;;5066594;28;20052;-71
2022/07/24 03:59:08;;;;;;;3.33;2.92;;;13.90;99.90;;;;;;5066912;28;20040;-71
2022/07/24 04:01:33;;;;;;;5.78;2.78;;;13.90;99.90;;;;;;5066433;28;20526;-71
2022/07/24 04:04:04;;;;;;;3.65;2.97;;;14.00;99.90;;;;;;5066675;28;20045;-71
2022/07/24 04:06:32;;;;;;;4.82;2.67;;;14.00;99.90;;;;;;5067304;28;20056;-71
2022/07/24 04:08:58;;;;;;;8.13;2.90;;;14.00;99.90;;;;;;5064642;28;20398;-71
2022/07/24 04:11:25;;;;;;;3.90;2.78;;;14.10;99.90;;;;;;5065287;28;20098;-71
2022/07/24 04:13:50;;;;;;;8.90;3.65;;;14.10;99.90;;;;;;5066366;28;20441;-71
2022/07/24 04:16:16;;;;;;;4.72;2.40;;;14.20;99.90;;;;;;5067287;28;20134;-71
2022/07/24 04:18:42;;;;;;;2.78;2.58;;;14.20;99.90;;;;;;5066515;28;20077;-71
2022/07/24 04:21:08;;;;;;;6.80;3.22;;;14.30;99.90;;;;;;5066474;28;20067;-71
2022/07/24 04:23:34;;;;;;;4.00;2.70;;;14.30;99.90;;;;;;5065066;28;20040;-70
2022/07/24 04:26:00;;;;;;;3.88;2.72;;;14.40;99.90;;;;;;5065686;28;20044;-71
2022/07/24 04:28:25;;;;;;;3.25;2.80;;;14.40;99.90;;;;;;5066886;28;20039;-71
2022/07/24 04:30:52;;;;;;;7.72;2.88;;;14.50;99.90;;;;;;5066048;28;20505;-71
2022/07/24 04:33:17;;;;;;;3.85;2.53;;;14.50;99.90;;;;;;5064091;28;20040;-71
2022/07/24 04:35:43;;;;;;;9.75;2.97;;;14.50;99.90;;;;;;5066081;28;20048;-70
2022/07/24 04:38:09;;;;;;;3.10;2.72;;;14.60;99.90;;;;;;5066256;28;20061;-71
2022/07/24 04:40:35;;;;;;;5.38;3.03;;;14.60;99.90;;;;;;5066249;28;20051;-71
2022/07/24 04:43:01;;;;;;;3.63;2.63;;;14.70;99.90;;;;;;5065684;28;20040;-71
2022/07/24 04:45:26;;;;;;;3.78;3.28;;;14.70;99.90;;;;;;5066258;28;20101;-71
2022/07/24 04:47:52;;;;;;;3.40;3.10;;;14.80;99.90;;;;;;5065731;28;20411;-71
2022/07/24 04:50:18;;;;;;;6.63;3.03;;;14.80;99.90;;;;;;5066325;28;20045;-70
2022/07/24 04:52:45;;;;;;;4.53;2.63;;;14.80;99.90;;;;;;5065998;28;20056;-71
2022/07/24 04:55:12;;;;;;;9.70;2.88;;;14.80;99.90;;;;;;5064403;28;20101;-71
2022/07/24 04:57:38;;;;;;;3.38;2.85;;;14.80;99.90;;;;;;5065297;28;20054;-71
2022/07/24 05:00:07;;;;;;;3.58;2.90;;;14.90;99.90;;;;;;5065729;28;20040;-71
2022/07/24 05:02:33;;;;;;;3.33;2.90;;;14.90;99.90;;;;;;5064806;28;20048;-71
2022/07/24 05:04:59;;;;;;;7.10;3.10;;;14.90;99.90;;;;;;5065063;28;20044;-71
2022/07/24 05:07:25;;;;;;;4.97;3.40;;;15.00;99.90;;;;;;5065712;28;20444;-71
2022/07/24 05:09:50;;;;;;;6.57;3.28;;;15.00;99.90;;;;;;5070287;28;20040;-71
2022/07/24 05:12:16;;;;;;;6.22;3.10;;;15.10;99.90;;;;;;5071226;28;20123;-71
2022/07/24 05:14:42;;;;;;;3.83;3.00;;;15.20;99.90;;;;;;5072435;28;20072;-71
2022/07/24 05:17:08;;;;;;;6.13;3.22;;;15.30;99.90;;;;;;5063632;28;20037;-71
2022/07/24 05:19:33;;;;;;;6.82;2.90;;;15.40;99.90;;;;;;5058043;28;20183;-71
2022/07/24 05:21:59;;;;;;;5.65;2.72;;;15.50;99.90;;;;;;5064567;28;20040;-71
2022/07/24 05:24:26;;;;;;;7.55;3.15;;;15.60;99.90;;;;;;5065288;28;20036;-71
2022/07/24 05:26:52;;;;;;;5.30;2.97;;;15.70;99.90;;;;;;5065959;28;20548;-71
2022/07/24 05:29:18;;;;;;;4.50;3.28;;;15.80;99.90;;;;;;5061619;28;20048;-71
2022/07/24 05:31:43;;;;;;;4.70;2.83;;;15.90;99.90;;;;;;5063963;28;20040;-71
2022/07/24 05:34:09;;;;;;;5.05;2.67;;;16.10;99.90;;;;;;5064066;28;20074;-71
2022/07/24 05:36:35;;;;;;;4.53;2.70;;;16.30;99.90;;;;;;5063850;28;20392;-71
2022/07/24 05:39:01;;;;;;;4.40;2.95;;;16.50;99.90;;;;;;5063643;28;20064;-71
2022/07/24 05:41:27;;;;;;;4.43;2.80;;;16.60;99.90;;;;;;5065233;28;20079;-71
2022/07/24 05:43:53;;;;;;;10.07;3.22;;;16.80;99.90;;;;;;5065202;28;20141;-71
2022/07/24 05:46:19;;;;;;;3.35;3.00;;;16.80;99.90;;;;;;5066012;28;20422;-71
2022/07/24 05:48:45;;;;;;;3.30;2.60;;;16.90;99.90;;;;;;5063169;28;20033;-71
2022/07/24 05:51:11;;;;;;;8.30;2.72;;;16.90;99.90;;;;;;5064728;28;20572;-70
2022/07/24 05:53:37;;;;;;;3.10;2.63;;;16.90;99.90;;;;;;5064837;28;20045;-70
2022/07/24 05:56:04;;;;;;;3.47;2.78;;;16.90;99.90;;;;;;5063857;28;20502;-70
2022/07/24 05:58:30;;;;;;;4.93;2.78;;;17.00;99.90;;;;;;5065486;28;20052;-71
2022/07/24 06:00:56;;;;;;;3.50;2.72;;;17.10;99.90;;;;;;5064581;28;20048;-70
2022/07/24 06:03:21;;;;;;;5.30;2.80;;;17.30;99.90;;;;;;5065213;28;20145;-71
2022/07/24 06:05:47;;;;;;;4.60;2.75;;;17.50;99.90;;;;;;5065109;28;20125;-71
2022/07/24 06:08:13;;;;;;;3.47;2.67;;;17.70;99.90;;;;;;5064349;28;20495;-70
2022/07/24 06:10:39;;;;;;;2.50;2.30;;;17.80;99.90;;;;;;5067703;28;20052;-71
2022/07/24 06:13:05;;;;;;;3.42;2.38;;;18.00;99.90;;;;;;5067095;28;20269;-71
2022/07/24 06:15:30;;;;;;;14.02;2.67;;;18.10;99.90;;;;;;5068330;28;20371;-71
2022/07/24 06:17:56;;;;;;;4.05;2.60;;;18.20;99.90;;;;;;5068352;28;20041;-70
2022/07/24 06:20:22;;;;;;;6.10;2.72;;;18.30;99.90;;;;;;5068527;28;20115;-71
2022/07/24 06:22:48;;;;;;;5.63;3.05;;;18.30;99.90;;;;;;5068247;28;20040;-71
2022/07/24 06:25:14;;;;;;;4.97;3.03;;;18.30;99.90;;;;;;5067817;28;20429;-71
2022/07/24 06:27:48;;;;;;;4.20;3.00;;;18.40;99.90;;;;;;5068641;28;20410;-70
2022/07/24 06:30:25;;;;;;;8.23;2.72;;;18.40;99.90;;;;;;5066831;28;20084;-71
2022/07/24 06:32:58;;;;;;;4.85;3.20;;;18.50;99.90;;;;;;5068093;28;20080;-71
2022/07/24 06:35:25;;;;;;;6.38;2.80;;;18.60;99.90;;;;;;5067304;28;20066;-70
2022/07/24 06:37:51;;;;;;;3.58;2.95;;;18.70;99.90;;;;;;5066979;28;20170;-70
2022/07/24 06:40:18;;;;;;;6.15;2.90;;;18.80;99.90;;;;;;5064897;28;20135;-70
2022/07/24 06:42:46;;;;;;;3.90;3.15;;;19.00;99.90;;;;;;5067858;28;20057;-70
2022/07/24 06:45:12;;;;;;;4.53;2.97;;;19.20;99.90;;;;;;5067235;28;20127;-70
2022/07/24 06:47:38;;;;;;;3.95;3.38;;;19.50;99.90;;;;;;5063957;28;20052;-71
2022/07/24 06:50:04;;;;;;;4.28;3.05;;;19.70;99.90;;;;;;5064684;28;20510;-71
2022/07/24 06:52:30;;;;;;;8.73;3.70;;;20.00;99.90;;;;;;5065349;28;20064;-71
2022/07/24 06:54:56;;;;;;;5.70;3.58;;;20.20;99.90;;;;;;5065710;28;20551;-71
2022/07/24 06:57:21;;;;;;;14.18;4.07;;;20.30;99.90;;;;;;5060460;28;20052;-70
2022/07/24 06:59:47;;;;;;;9.88;3.72;;;20.30;99.90;;;;;;5062584;28;20053;-71
2022/07/24 07:02:13;;;;;;;4.95;3.70;;;20.30;99.90;;;;;;5062968;28;20167;-70
2022/07/24 07:04:38;;;;;;;7.25;4.35;;;20.30;99.90;;;;;;5065785;28;20143;-70
2022/07/24 07:07:05;;;;;;;5.50;4.00;;;20.20;99.90;;;;;;5064296;28;20036;-70
2022/07/24 07:09:31;;;;;;;6.43;4.38;;;20.20;99.90;;;;;;5067154;28;20045;-72
2022/07/24 07:11:57;;;;;;;9.35;4.40;;;20.20;99.90;;;;;;5066485;28;20040;-70
2022/07/24 07:14:23;;;;;;;10.00;4.13;;;20.30;99.90;;;;;;5067308;28;20124;-71
2022/07/24 07:16:48;;;;;;;7.25;4.70;;;20.60;99.90;;;;;;5067511;28;20082;-70
2022/07/24 07:19:14;;;;;;;5.60;4.10;;;20.80;99.90;;;;;;5066201;28;20506;-70
2022/07/24 07:21:40;;;;;;;4.47;4.07;;;21.10;99.90;;;;;;5067432;28;20498;-70
2022/07/24 07:24:06;;;;;;;5.28;4.20;;;21.40;99.90;;;;;;5066703;28;20371;-70
2022/07/24 07:26:32;;;;;;;6.40;4.93;;;21.70;99.50;;;;;;5079766;28;20037;-71
2022/07/24 07:28:58;;;;;;;14.10;5.45;;;22.10;96.90;;;;;;5066503;28;20177;-71
2022/07/24 07:31:25;;;;;;;9.73;4.63;;;22.30;92.70;;;;;;5066757;28;20387;-71
2022/07/24 07:33:51;;;;;;;5.07;4.38;;;22.50;92.00;;;;;;5066793;28;20040;-70
2022/07/24 07:36:17;;;;;;;6.00;5.20;;;22.80;91.50;;;;;;5066111;28;20115;-70
2022/07/24 07:38:43;;;;;;;7.28;5.72;;;23.10;91.80;;;;;;5067637;28;20174;-71
2022/07/24 07:41:08;;;;;;;7.78;5.90;;;23.20;88.20;;;;;;5066273;28;20145;-71
2022/07/24 07:43:34;;;;;;;7.75;5.82;;;23.20;76.30;;;;;;5066980;28;20073;-71
2022/07/24 07:46:00;;;;;;;7.60;6.13;;;23.30;79.30;;;;;;5066507;28;20071;-70
2022/07/24 07:48:26;;;;;;;12.77;6.57;;;23.30;76.00;;;;;;5066842;28;20040;-71
2022/07/24 07:50:52;;;;;;;12.48;6.18;;;23.40;73.40;;;;;;5067265;28;20410;-70
2022/07/24 07:53:18;;;;;;;10.60;6.10;;;23.60;73.10;;;;;;5065755;28;20040;-70
2022/07/24 07:55:48;;;;;;;11.88;5.93;;;23.70;78.80;;;;;;5066362;28;20435;-70
2022/07/24 07:58:14;;;;;;;;;;;23.90;71.40;;;;;;5066207;28;20045;-70
2022/07/24 08:00:40;;;;;;;8.40;6.25;;;24.00;73.70;;;;;;5066058;28;19974;-70
2022/07/24 08:03:05;;;;;;;10.32;6.25;;;24.30;69.20;;;;;;5066195;28;20616;-69
2022/07/24 08:05:31;;;;;;;12.68;6.00;;;24.40;59.10;;;;;;5061816;28;20049;-70
2022/07/24 08:07:57;;;;;;;7.65;5.75;;;24.60;61.40;;;;;;5067037;28;20040;-70
2022/07/24 08:10:23;;;;;;;9.05;6.28;;;24.80;59.50;;;;;;5066465;28;20090;-70
2022/07/24 08:12:49;;;;;;;11.18;6.75;;;24.90;59.80;;;;;;5067378;28;20478;-70
2022/07/24 08:15:15;;;;;;;13.73;6.05;;;25.10;45.80;;;;;;5065613;28;20463;-70
2022/07/24 08:17:41;;;;;;;11.18;6.60;;;25.30;44.40;;;;;;5067137;28;20083;-70
2022/07/24 08:20:08;;;;;;;7.90;6.68;;;25.40;37.60;;;;;;5065538;28;20093;-71
2022/07/24 08:22:34;;;;;;;10.18;7.10;;;25.50;35.90;;;;;;5066653;28;20521;-71
2022/07/24 08:24:59;;;;;;;11.27;6.45;;;25.70;30.20;;;;;;5066270;28;20041;-71
2022/07/24 08:27:25;;;;;;;7.30;5.30;;;25.90;45.70;;;;;;5066171;28;20124;-71
2022/07/24 08:29:51;;;;;;;11.90;6.32;;;25.90;18.00;;;;;;5066183;28;20041;-71
2022/07/24 08:32:17;;;;;;;5.93;5.30;;;25.60;21.30;;;;;;5063725;28;20087;-70
2022/07/24 08:34:42;;;;;;;7.13;5.45;;;25.50;19.50;;;;;;5066520;28;20390;-70
2022/07/24 08:37:08;;;;;;;6.53;5.20;;;25.50;24.80;;;;;;5065914;28;20041;-70
2022/07/24 08:39:34;;;;;;;9.70;5.43;;;25.30;27.20;;;;;;5031427;28;20503;-71
2022/07/24 08:42:00;;;;;;;9.68;5.03;;;25.10;28.20;;;;;;5066417;28;20044;-70
2022/07/24 08:44:25;;;;;;;5.70;3.97;;;24.90;34.90;;;;;;5065675;28;20533;-70
2022/07/24 08:46:54;;;;;;;8.43;4.80;;;24.80;45.20;;;;;;5065746;28;20036;-70
2022/07/24 08:49:21;;;;;;;6.80;3.88;;;24.70;30.00;;;;;;5065786;28;20059;-70
2022/07/24 08:51:49;;;;;;;5.28;4.00;;;24.70;24.50;;;;;;5065229;28;20040;-70
2022/07/24 08:54:15;;;;;;;5.55;3.80;;;24.60;24.20;;;;;;5065796;28;20045;-71
2022/07/24 08:56:41;;;;;;;4.43;2.92;;;24.70;27.40;;;;;;5065971;28;20461;-70
2022/07/24 08:59:20;;;;;;;3.45;2.70;;;25.10;50.80;;;;;;5065980;28;20086;-70
2022/07/24 09:01:49;;;;;;;6.00;3.03;;;25.30;16.60;;;;;;5047967;28;20131;-71
2022/07/24 09:04:31;;;;;;;;;;;25.30;12.70;;;;;;5064783;28;20041;-71
2022/07/24 09:06:58;;;;;;;2.55;2.13;;;25.40;14.60;;;;;;5066114;28;20488;-70
2022/07/24 09:09:23;;;;;;;3.03;1.75;;;25.50;17.70;;;;;;5065039;28;20037;-70
2022/07/24 09:11:50;;;;;;;3.92;2.20;;;25.60;15.40;;;;;;5065517;28;20090;-71
2022/07/24 09:14:32;;;;;;;2.28;2.10;;;25.60;7.80;;;;;;5064238;28;20445;-70
2022/07/24 09:17:12;;;;;;;2.05;1.85;;;25.50;12.50;;;;;;5064451;28;20032;-70
2022/07/24 09:19:58;;;;;;;2.45;2.03;;;25.30;11.90;;;;;;5065786;28;20076;-70
2022/07/24 09:22:35;;;;;;;1.55;1.45;;;25.10;20.00;;;;;;5066024;28;20170;-71
2022/07/24 09:25:11;;;;;;;3.70;1.77;;;24.80;19.10;;;;;;5053396;28;20048;-70
2022/07/24 09:27:40;;;;;;;5.20;1.70;;;24.80;12.70;;;;;;5065723;28;20091;-70
2022/07/24 09:30:08;;;;;;;6.65;1.50;;;24.90;18.00;;;;;;5065864;28;20094;-71
2022/07/24 09:32:34;;;;;;;5.40;1.52;;;24.90;14.80;;;;;;5065465;28;20055;-71
2022/07/24 09:35:00;;;;;;;1.38;1.27;;;24.90;11.30;;;;;;5066127;28;20037;-71
2022/07/24 09:37:27;;;;;;;1.73;1.63;;;24.80;8.50;;;;;;5048770;28;20037;-70
2022/07/24 09:40:04;;;;;;;2.67;1.65;;;24.80;12.00;;;;;;5065609;28;20475;-70
2022/07/24 09:42:38;;;;;;;4.00;1.80;;;24.90;13.00;;;;;;5064494;28;20513;-70
2022/07/24 09:45:05;;;;;;;1.58;1.40;;;25.00;15.70;;;;;;5067972;28;20040;-72
2022/07/24 09:47:34;;;;;;;4.05;1.73;;;25.10;13.40;;;;;;5069478;28;20150;-71
2022/07/24 09:50:12;;;;;;;1.58;1.48;;;25.30;14.80;;;;;;5068690;28;20036;-71
2022/07/24 09:52:42;;;;;;;1.80;1.70;;;25.50;15.30;;;;;;5067119;28;20067;-70
2022/07/24 09:55:23;;;;;;;2.65;1.83;;;25.70;15.80;;;;;;5067832;28;20036;-70
2022/07/24 09:57:49;;;;;;;6.07;1.80;;;26.10;10.20;;;;;;5068934;28;20384;-71
2022/07/24 10:00:15;;;;;;;4.05;1.60;;;26.30;8.70;;;;;;5066760;28;20033;-71
2022/07/24 10:02:44;;;;;;;3.60;1.95;;;26.40;1.10;;;;;;5067346;28;20040;-70
2022/07/24 10:05:11;;;;;;;3.92;1.80;;;26.60;3.20;;;;;;5068872;28;20037;-71
2022/07/24 10:07:47;;;;;;;2.85;1.60;;;26.70;1.00;;;;;;5067409;28;20052;-71
2022/07/24 10:10:13;;;;;;;1.58;1.48;;;26.80;1.00;;;;;;5069058;28;20032;-70
2022/07/24 10:12:39;;;;;;;2.03;1.50;;;26.80;1.00;;;;;;5047344;28;20520;-71
2022/07/24 10:15:05;;;;;;;2.97;1.67;;;26.90;1.50;;;;;;5066887;28;20048;-71
2022/07/24 10:18:13;;;;;;;5.75;1.92;;;27.10;4.20;;;;;;5065248;28;20044;-71
2022/07/24 10:20:42;;;;;;;5.53;1.90;;;27.30;1.00;;;;;;5064961;28;20510;-71
2022/07/24 10:23:08;;;;;;;5.00;1.90;;;27.40;1.20;;;;;;5067140;28;20738;-72
2022/07/24 10:26:07;;;;;;;2.28;1.73;;;27.50;1.00;;;;;;5065943;28;20702;-71
2022/07/24 10:28:42;;;;;;;2.53;1.70;;;27.40;1.00;;;;;;5066130;28;20314;-71
2022/07/24 10:31:11;;;;;;;2.10;1.90;;;27.20;1.00;;;;;;5064612;28;20052;-71
2022/07/24 10:33:39;;;;;;;2.43;1.50;;;27.00;1.00;;;;;;5064470;28;20163;-71
2022/07/24 10:36:22;;;;;;;2.27;1.30;;;26.80;1.00;;;;;;5065912;28;20053;-72
2022/07/24 10:39:12;;;;;;;3.58;1.55;;;26.70;1.00;;;;;;5066005;28;20106;-72
2022/07/24 10:41:38;;;;;;;1.45;1.35;;;26.70;1.00;;;;;;5064817;28;20045;-71
2022/07/24 10:44:17;;;;;;;6.93;1.77;;;26.60;1.20;;;;;;5067919;28;20052;-70
2022/07/24 10:47:01;;;;;;;3.00;1.50;;;26.50;1.90;;;;;;5068129;28;20376;-72
2022/07/24 10:49:42;;;;;;;2.25;1.90;;;26.40;1.00;;;;;;5068614;28;20049;-71
2022/07/24 10:52:27;;;;;;;3.33;1.50;;;26.30;1.60;;;;;;5053523;28;20044;-71
2022/07/24 10:55:30;;;;;;;2.22;1.65;;;26.30;1.00;;;;;;5067447;28;20048;-70
2022/07/24 10:58:09;;;;;;;11.45;1.55;;;26.30;2.40;;;;;;5068005;28;20090;-71
2022/07/24 11:00:36;;;;;;;;;;;26.60;7.60;;;;;;5054857;28;20112;-71
2022/07/24 11:03:26;;;;;;;2.03;1.60;;;26.80;1.80;;;;;;5067679;28;19924;-71
2022/07/24 11:06:06;;;;;;;2.53;1.50;;;26.80;3.20;;;;;;5056321;28;20118;-71
2022/07/24 11:08:52;;;;;;;2.45;1.67;;;26.70;3.10;;;;;;5067838;28;20469;-71
2022/07/24 11:11:21;;;;;;;1.50;1.40;;;26.70;1.80;;;;;;5067951;28;20392;-71
2022/07/24 11:13:50;;;;;;;1.60;1.25;;;26.80;4.00;;;;;;5066077;28;20072;-71
2022/07/24 11:16:15;;;;;;;2.40;1.50;;;26.80;1.00;;;;;;5065798;28;20040;-70
2022/07/24 11:19:02;;;;;;;7.18;1.50;;;26.70;1.00;;;;;;5063591;28;20571;-72
2022/07/24 11:21:37;;;;;;;1.30;1.20;;;26.70;6.80;;;;;;5065054;28;20369;-71
2022/07/24 11:24:24;;;;;;;7.05;1.30;;;26.80;2.00;;;;;;5065491;28;20051;-71
2022/07/24 11:26:51;;;;;;;2.50;1.63;;;26.90;1.60;;;;;;5053044;28;20051;-72
2022/07/24 11:29:37;;;;;;;2.05;1.70;;;26.90;3.20;;;;;;5064862;28;20059;-71
2022/07/24 11:32:10;;;;;;;2.80;1.60;;;27.00;2.30;;;;;;5065300;28;20083;-71
2022/07/24 11:34:37;;;;;;;2.83;1.45;;;27.10;1.00;;;;;;5064296;28;20036;-71
2022/07/24 11:37:06;;;;;;;1.75;1.65;;;27.00;1.00;;;;;;5062366;28;20059;-72
2022/07/24 11:39:35;;;;;;;1.40;1.30;;;27.00;1.00;;;;;;5061996;28;20045;-71
2022/07/24 11:42:03;;;;;;;2.10;1.65;;;26.90;1.70;;;;;;5056985;28;20102;-73
2022/07/24 11:44:39;;;;;;;1.90;1.25;;;26.80;1.80;;;;;;5058125;28;20047;-71
2022/07/24 11:47:17;;;;;;;2.92;1.35;;;26.60;1.00;;;;;;5056580;28;20261;-71
2022/07/24 11:49:53;;;;;;;1.53;1.43;;;26.50;2.40;;;;;;5063077;28;20055;-70
2022/07/24 11:52:34;;;;;;;2.25;1.80;;;26.60;1.50;;;;;;5064582;28;20167;-70
2022/07/24 11:55:13;;;;;;;3.60;1.60;;;26.70;1.30;;;;;;5063284;28;20060;-71
2022/07/24 11:57:41;;;;;;;2.47;1.20;;;26.80;2.80;;;;;;5064790;28;20059;-71
2022/07/24 12:00:21;;;;;;;6.72;2.03;;;27.00;2.30;;;;;;5064258;28;20032;-71
2022/07/24 12:02:49;;;;;;;1.77;1.20;;;27.10;1.00;;;;;;5064054;28;20594;-71
2022/07/24 12:05:27;;;;;;;1.92;1.27;;;27.20;1.20;;;;;;5065099;28;20051;-71
2022/07/24 12:07:58;;;;;;;1.45;1.30;;;27.30;1.00;;;;;;5064698;28;20044;-71
2022/07/24 12:10:25;;;;;;;1.92;1.70;;;27.40;1.00;;;;;;5059559;28;20049;-71
2022/07/24 12:12:53;;;;;;;2.63;1.50;;;27.30;1.00;;;;;;5063735;28;20514;-72
2022/07/24 12:15:20;;;;;;;1.57;1.30;;;27.20;1.00;;;;;;5064897;28;20165;-72
2022/07/24 12:17:56;;;;;;;4.85;1.38;;;27.10;1.00;;;;;;5062836;28;20569;-71
2022/07/24 12:20:33;;;;;;;2.55;1.73;;;27.10;1.00;;;;;;5063867;28;20087;-71
2022/07/24 12:23:01;;;;;;;3.55;1.45;;;27.10;1.00;;;;;;5065023;28;20032;-71
2022/07/24 12:25:28;;;;;;;1.98;1.60;;;27.10;1.00;;;;;;5063740;28;20192;-72
2022/07/24 12:28:07;;;;;;;3.30;1.00;;;26.90;1.00;;;;;;5064198;28;20044;-70
2022/07/24 12:30:43;;;;;;;4.22;1.30;;;27.00;1.00;;;;;;5062379;28;20037;-71
2022/07/24 12:33:19;;;;;;;1.50;1.40;;;27.10;1.00;;;;;;5063608;28;20119;-72
2022/07/24 12:36:11;;;;;;;3.63;1.40;;;27.20;1.00;;;;;;5063649;28;20040;-72
2022/07/24 12:38:56;;;;;;;1.85;1.23;;;27.30;1.00;;;;;;5061561;28;20060;-72
2022/07/24 12:41:25;;;;;;;4.40;1.55;;;27.30;1.00;;;;;;5059241;28;20051;-72
2022/07/24 12:43:58;;;;;;;3.20;1.50;;;27.30;1.00;;;;;;5064197;28;20093;-71
2022/07/24 12:46:38;;;;;;;4.35;1.40;;;27.30;1.00;;;;;;5061852;28;20036;-71
2022/07/24 12:49:06;;;;;;;5.35;1.40;;;27.30;1.00;;;;;;5063451;28;20053;-72
2022/07/24 12:51:45;;;;;;;4.43;1.60;;;27.30;1.00;;;;;;5063483;28;20406;-71
2022/07/24 12:54:15;;;;;;;;;;;27.30;1.00;;;;;;5065805;28;20190;-71
2022/07/24 12:56:40;;;;;;;2.38;1.40;;;27.30;1.30;;;;;;5065506;28;19926;-71